createdAt,value
2022-10-14T14:42:43.966Z,84.57
2022-10-14T14:47:50.775Z,81.80
2022-10-14T14:58:20.011Z,79.80
2022-10-14T15:03:32.131Z,93.07
2022-10-14T15:14:04.653Z,71.75
2022-10-14T15:19:22.613Z,77.15
2022-10-14T15:24:30.885Z,70.20
2022-10-14T15:29:36.361Z,78.60
2022-10-14T15:34:43.211Z,79.05
2022-10-14T15:39:48.642Z,84.88
2022-10-14T15:44:56.256Z,70.05
2022-10-14T15:50:02.046Z,79.30
2022-10-14T16:00:12.667Z,76.85
2022-10-14T16:05:20.385Z,71.88
2022-10-14T16:10:29.458Z,69.30
2022-10-14T16:16:05.659Z,72.63
2022-10-14T16:21:15.328Z,64.90
2022-10-14T16:26:20.346Z,70.28
2022-10-14T16:31:28.954Z,63.10
2022-10-14T16:36:34.334Z,60.05
2022-10-14T16:41:40.675Z,53.80
2022-10-14T16:47:04.062Z,47.53
2022-10-14T16:52:10.218Z,45.28
2022-10-14T16:57:15.898Z,43.78
2022-10-14T17:02:22.663Z,44.58
2022-10-14T17:07:28.262Z,44.33
2022-10-14T17:12:34.073Z,41.10
2022-10-14T17:17:41.325Z,43.67
2022-10-14T17:22:47.405Z,36.78
2022-10-14T17:27:52.818Z,41.70
2022-10-14T17:32:58.514Z,38.65
2022-10-14T17:38:03.839Z,35.50
2022-10-14T17:43:09.762Z,41.30
2022-10-14T17:48:15.164Z,36.28
2022-10-14T17:53:20.505Z,33.80
2022-10-14T17:58:25.739Z,47.23
2022-10-14T18:03:30.796Z,34.90
2022-10-14T18:08:36.478Z,31.95
2022-10-14T18:13:41.935Z,35.10
2022-10-14T18:18:48.789Z,36.40
2022-10-14T18:23:53.879Z,33.88
2022-10-14T18:29:02.684Z,45.13
2022-10-14T18:34:10.015Z,41.72
2022-10-14T18:39:15.168Z,55.03
2022-10-14T18:44:20.594Z,51.97
2022-10-14T18:49:25.799Z,46.97
2022-10-14T18:54:34.173Z,88.07
2022-10-14T18:59:39.726Z,101.88
2022-10-14T19:04:45.127Z,101.05
2022-10-14T19:09:52.894Z,76.63
2022-10-14T19:15:01.565Z,96.05
2022-10-14T19:25:14.070Z,88.47
2022-10-14T19:35:24.602Z,73.80
2022-10-14T19:40:29.685Z,69.17
2022-10-14T19:45:34.738Z,75.57
2022-10-14T19:50:43.097Z,72.90
2022-10-14T19:55:48.591Z,76.60
2022-10-14T20:00:53.828Z,66.82
2022-10-14T20:06:02.681Z,73.82
2022-10-14T20:11:09.561Z,63.72
2022-10-14T20:16:15.374Z,68.22
2022-10-14T20:21:20.425Z,60.95
2022-10-14T20:36:35.862Z,52.08
2022-10-14T20:41:41.284Z,64.17
2022-10-14T20:46:46.408Z,50.63
2022-10-14T20:51:51.670Z,62.50
2022-10-14T20:56:57.121Z,69.72
2022-10-14T21:02:02.449Z,46.23
2022-10-14T21:07:07.462Z,54.50
2022-10-14T21:12:12.603Z,53.27
2022-10-14T21:17:18.621Z,61.40
2022-10-14T21:22:24.181Z,56.40
2022-10-14T21:27:29.334Z,50.63
2022-10-14T21:32:34.697Z,55.35
2022-10-14T21:37:39.757Z,56.07
2022-10-14T21:42:57.000Z,48.60
2022-10-14T21:48:12.520Z,56.80
2022-10-14T21:53:17.707Z,50.60
2022-10-14T21:58:23.385Z,41.42
2022-10-14T22:03:28.647Z,52.30
2022-10-14T22:08:37.687Z,47.40
2022-10-14T22:13:42.863Z,49.28
2022-10-14T22:18:48.652Z,46.35
2022-10-14T22:23:54.100Z,49.58
2022-10-14T22:29:02.879Z,50.00
2022-10-14T22:34:09.257Z,35.50
2022-10-14T22:39:18.211Z,46.67
2022-10-14T22:44:23.351Z,46.80
2022-10-14T22:49:31.084Z,39.30
2022-10-14T22:54:36.710Z,46.05
2022-10-14T22:59:42.259Z,52.53
2022-10-14T23:04:47.257Z,46.08
2022-10-14T23:09:52.780Z,52.23
2022-10-14T23:14:58.227Z,49.97
2022-10-14T23:20:04.006Z,44.15
2022-10-14T23:30:15.415Z,50.83
2022-10-14T23:35:20.968Z,45.75
2022-10-14T23:40:26.182Z,52.37
2022-10-14T23:45:31.101Z,47.03
2022-10-14T23:50:36.509Z,45.37
2022-10-14T23:55:42.070Z,49.95
